Time;durP1;ratioP1;P1;durP2;ratioP2;P2;SDS_P1;SDS_P2;PMS_P1;PMS_P2;Temp;Humidity;BMP_temperature;BMP_pressure;BME280_temperature;BME280_humidity;BME280_pressure;Samples;Min_cycle;Max_cycle;Signal;HPM_P1;HPM_P2
2023/08/16 00:04:00;;;;;;;0.00;0.00;;;16.40;99.90;;;;;;8331856;28;20037;-91
2023/08/16 00:08:00;;;;;;;0.08;0.08;;;16.30;99.90;;;;;;8351141;28;20037;-90
2023/08/16 00:12:01;;;;;;;0.10;0.10;;;16.30;99.90;;;;;;8344295;28;20022;-91
2023/08/16 00:16:02;;;;;;;0.00;0.00;;;16.20;99.90;;;;;;8348015;28;20068;-92
2023/08/16 00:20:07;;;;;;;0.00;0.00;;;16.40;99.90;;;;;;8343400;28;20261;-91
2023/08/16 00:24:08;;;;;;;0.00;0.00;;;16.40;99.90;;;;;;8341964;28;20035;-91
2023/08/16 00:28:09;;;;;;;0.00;0.00;;;16.40;99.90;;;;;;8324166;28;20060;-92
2023/08/16 00:32:11;;;;;;;0.00;0.00;;;16.70;99.90;;;;;;8328699;28;20097;-92
2023/08/16 00:36:11;;;;;;;0.00;0.00;;;16.70;99.90;;;;;;8326032;28;20072;-91
2023/08/16 00:40:12;;;;;;;0.00;0.00;;;16.60;99.90;;;;;;8333100;28;20018;-91
2023/08/16 00:44:12;;;;;;;0.10;0.10;;;16.50;99.90;;;;;;8320700;28;20089;-90
2023/08/16 00:48:13;;;;;;;0.05;0.05;;;16.60;99.90;;;;;;8320381;28;20025;-91
2023/08/16 00:52:14;;;;;;;0.85;0.85;;;16.60;99.90;;;;;;8327352;28;20027;-91
2023/08/16 00:56:15;;;;;;;0.05;0.05;;;16.40;99.90;;;;;;8337949;28;20394;-91
2023/08/16 01:00:16;;;;;;;0.00;0.00;;;16.20;99.90;;;;;;8336339;28;20026;-92
2023/08/16 01:04:17;;;;;;;0.45;0.45;;;16.10;99.90;;;;;;8325624;28;20044;-91
2023/08/16 01:08:18;;;;;;;0.35;0.35;;;15.90;99.90;;;;;;8353939;28;20061;-91
2023/08/16 01:12:26;;;;;;;0.00;0.00;;;15.80;99.90;;;;;;8333303;28;20117;-92
2023/08/16 01:16:28;;;;;;;0.10;0.10;;;15.70;99.90;;;;;;8352603;28;20494;-91
2023/08/16 01:20:31;;;;;;;0.03;0.03;;;15.60;99.90;;;;;;8336568;28;20030;-92
2023/08/16 01:24:43;;;;;;;0.00;0.00;;;15.60;99.90;;;;;;8352939;28;20057;-91
2023/08/16 01:28:45;;;;;;;0.00;0.00;;;15.60;99.90;;;;;;8353554;28;20095;-92
2023/08/16 01:32:47;;;;;;;0.00;0.00;;;15.60;99.90;;;;;;8322711;28;20437;-91
2023/08/16 01:36:48;;;;;;;0.00;0.00;;;15.50;99.90;;;;;;8329378;28;20050;-91
2023/08/16 01:41:01;;;;;;;0.00;0.00;;;15.60;99.90;;;;;;8338669;28;20034;-92
2023/08/16 01:45:03;;;;;;;0.00;0.00;;;15.70;99.90;;;;;;8329366;28;20026;-90
2023/08/16 01:49:05;;;;;;;0.10;0.10;;;15.70;99.90;;;;;;8337256;28;20022;-91
2023/08/16 01:53:06;;;;;;;0.20;0.20;;;15.70;99.90;;;;;;8331633;28;20029;-91
2023/08/16 01:57:06;;;;;;;0.08;0.08;;;15.70;99.90;;;;;;8322131;28;20026;-92
2023/08/16 02:01:07;;;;;;;0.10;0.10;;;15.70;99.90;;;;;;8329221;28;20034;-91
2023/08/16 02:05:08;;;;;;;0.05;0.05;;;15.70;99.90;;;;;;8366370;28;20056;-91
2023/08/16 02:09:08;;;;;;;8.77;2.13;;;15.70;99.90;;;;;;8344239;28;20573;-91
2023/08/16 02:13:10;;;;;;;0.00;0.00;;;15.60;99.90;;;;;;8350419;28;20028;-92
2023/08/16 02:17:10;;;;;;;0.00;0.00;;;15.50;99.90;;;;;;8358218;28;20037;-91
2023/08/16 02:21:11;;;;;;;0.05;0.05;;;15.50;99.90;;;;;;8345403;28;20037;-91
2023/08/16 02:25:12;;;;;;;0.00;0.00;;;15.60;99.90;;;;;;8356562;28;20057;-91
2023/08/16 02:29:12;;;;;;;0.00;0.00;;;15.70;99.90;;;;;;8358820;28;20082;-90
2023/08/16 02:33:13;;;;;;;0.17;0.17;;;15.40;99.90;;;;;;8356699;28;20411;-91
2023/08/16 02:37:14;;;;;;;0.00;0.00;;;15.20;99.90;;;;;;8342255;28;20018;-92
2023/08/16 02:41:14;;;;;;;0.00;0.00;;;15.10;99.90;;;;;;8343349;28;20066;-91
2023/08/16 02:45:15;;;;;;;0.00;0.00;;;15.10;99.90;;;;;;8356228;28;20054;-92
2023/08/16 02:49:16;;;;;;;0.03;0.03;;;15.40;99.90;;;;;;8352766;28;20030;-91
2023/08/16 02:53:17;;;;;;;0.00;0.00;;;15.70;99.90;;;;;;8349171;28;20022;-91
2023/08/16 02:57:18;;;;;;;0.10;0.10;;;15.90;99.90;;;;;;8356553;28;20026;-91
2023/08/16 03:01:19;;;;;;;0.00;0.00;;;15.60;99.90;;;;;;8355869;28;20071;-91
2023/08/16 03:05:19;;;;;;;0.40;0.40;;;15.40;99.90;;;;;;8340866;28;20494;-91
2023/08/16 03:09:20;;;;;;;0.00;0.00;;;15.20;99.90;;;;;;8341069;28;20052;-91
2023/08/16 03:13:20;;;;;;;0.00;0.00;;;15.20;99.90;;;;;;8354737;28;20034;-91
2023/08/16 03:17:21;;;;;;;0.00;0.00;;;15.30;99.90;;;;;;8352372;28;20352;-90
2023/08/16 03:21:23;;;;;;;0.00;0.00;;;15.20;99.90;;;;;;8340529;28;20033;-91
2023/08/16 03:25:23;;;;;;;0.00;0.00;;;15.20;99.90;;;;;;8343194;28;20056;-91
2023/08/16 03:29:24;;;;;;;0.05;0.05;;;15.00;99.90;;;;;;8356268;28;20030;-91
2023/08/16 03:33:24;;;;;;;0.05;0.05;;;14.90;99.90;;;;;;8354464;28;20430;-90
2023/08/16 03:37:25;;;;;;;0.00;0.00;;;14.80;99.90;;;;;;8342102;28;20026;-92
2023/08/16 03:41:25;;;;;;;0.00;0.00;;;14.70;99.90;;;;;;8356642;28;20026;-91
2023/08/16 03:45:26;;;;;;;0.00;0.00;;;14.50;99.90;;;;;;8347999;28;20029;-91
2023/08/16 03:49:27;;;;;;;0.10;0.10;;;14.40;99.90;;;;;;8344878;28;20612;-91
2023/08/16 03:53:27;;;;;;;0.00;0.00;;;14.50;99.90;;;;;;8331858;28;20486;-91
2023/08/16 03:57:28;;;;;;;0.00;0.00;;;14.60;99.90;;;;;;8332318;28;20581;-91
2023/08/16 04:01:29;;;;;;;0.10;0.10;;;14.70;99.90;;;;;;8311987;28;20035;-92
2023/08/16 04:05:30;;;;;;;0.00;0.00;;;14.70;99.90;;;;;;8313065;28;20510;-91
2023/08/16 04:09:30;;;;;;;0.00;0.00;;;14.60;99.90;;;;;;8346793;28;20022;-92
2023/08/16 04:13:32;;;;;;;0.08;0.08;;;14.50;99.90;;;;;;8349891;28;20109;-92
2023/08/16 04:17:32;;;;;;;0.00;0.00;;;14.40;99.90;;;;;;8352052;28;20480;-92
2023/08/16 04:21:33;;;;;;;0.00;0.00;;;14.40;99.90;;;;;;8338907;28;20033;-91
2023/08/16 04:25:39;;;;;;;0.00;0.00;;;14.40;99.90;;;;;;8311516;28;20040;-88
2023/08/16 04:29:40;;;;;;;0.00;0.00;;;14.40;99.90;;;;;;8323820;28;20029;-90
2023/08/16 04:33:40;;;;;;;0.03;0.03;;;14.40;99.90;;;;;;8320417;28;20498;-90
2023/08/16 04:37:41;;;;;;;0.17;0.17;;;14.50;99.90;;;;;;8332525;28;20073;-90
2023/08/16 04:41:41;;;;;;;0.10;0.10;;;14.50;99.90;;;;;;8323957;28;20030;-89
2023/08/16 04:45:42;;;;;;;0.00;0.00;;;14.60;99.90;;;;;;8322986;28;20026;-90
2023/08/16 04:49:43;;;;;;;0.00;0.00;;;14.70;99.90;;;;;;8323568;28;20023;-89
2023/08/16 04:53:45;;;;;;;0.08;0.08;;;14.90;99.90;;;;;;8330894;28;20025;-90
2023/08/16 04:57:48;;;;;;;0.00;0.00;;;15.00;99.90;;;;;;8322086;28;20033;-90
2023/08/16 05:01:49;;;;;;;0.10;0.10;;;15.20;99.90;;;;;;8331155;28;20030;-90
2023/08/16 05:05:55;;;;;;;0.00;0.00;;;15.40;99.90;;;;;;8323957;28;20058;-89
2023/08/16 05:09:56;;;;;;;0.00;0.00;;;15.50;99.90;;;;;;8315565;28;20022;-90
2023/08/16 05:13:57;;;;;;;0.00;0.00;;;15.50;99.90;;;;;;8351177;28;20117;-90
2023/08/16 05:17:57;;;;;;;0.20;0.20;;;15.50;99.90;;;;;;8351342;28;20030;-89
2023/08/16 05:21:58;;;;;;;0.00;0.00;;;15.70;99.90;;;;;;8329494;28;20124;-89
2023/08/16 05:25:58;;;;;;;0.10;0.10;;;15.90;99.90;;;;;;8322321;28;20289;-90
2023/08/16 05:29:59;;;;;;;2.00;0.80;;;15.90;99.90;;;;;;8324035;28;20592;-90
2023/08/16 05:33:59;;;;;;;0.10;0.10;;;16.10;99.90;;;;;;8327554;28;20117;-90
2023/08/16 05:38:00;;;;;;;0.20;0.20;;;16.00;99.90;;;;;;8332151;28;20422;-91
2023/08/16 05:42:02;;;;;;;1.35;1.25;;;16.40;99.90;;;;;;8327655;28;20027;-90
2023/08/16 05:46:02;;;;;;;0.00;0.00;;;16.50;99.90;;;;;;8328826;28;20414;-90
2023/08/16 05:50:03;;;;;;;0.75;0.75;;;16.70;99.90;;;;;;8321906;28;21536;-90
2023/08/16 05:54:04;;;;;;;0.00;0.00;;;17.00;99.90;;;;;;8337841;28;20031;-90
2023/08/16 05:58:05;;;;;;;0.00;0.00;;;17.40;99.90;;;;;;8329487;28;20030;-90
2023/08/16 06:02:06;;;;;;;0.00;0.00;;;18.50;99.90;;;;;;8321805;28;20800;-91
2023/08/16 06:06:07;;;;;;;0.28;0.28;;;19.60;99.90;;;;;;8338868;28;20023;-90
2023/08/16 06:10:08;;;;;;;0.57;0.57;;;20.40;99.90;;;;;;8354638;28;20041;-90
2023/08/16 06:14:08;;;;;;;1.27;1.17;;;20.70;99.90;;;;;;8354708;28;20018;-91
2023/08/16 06:18:09;;;;;;;0.05;0.05;;;21.10;99.90;;;;;;8356750;28;20586;-91
2023/08/16 06:22:09;;;;;;;0.00;0.00;;;21.60;99.90;;;;;;8338439;28;20517;-91
2023/08/16 06:26:10;;;;;;;0.10;0.10;;;21.80;99.90;;;;;;8319578;28;20483;-91
2023/08/16 06:30:11;;;;;;;0.00;0.00;;;22.10;99.90;;;;;;8326731;28;20063;-91
2023/08/16 06:34:12;;;;;;;0.00;0.00;;;22.50;99.90;;;;;;8324965;28;20105;-92
2023/08/16 06:38:13;;;;;;;0.80;0.80;;;23.30;99.90;;;;;;8321899;28;20014;-92
2023/08/16 06:42:14;;;;;;;0.10;0.10;;;23.70;99.90;;;;;;8325918;28;20033;-92
2023/08/16 06:46:14;;;;;;;0.43;0.43;;;24.30;99.90;;;;;;8324945;28;20058;-91
2023/08/16 06:50:15;;;;;;;0.22;0.22;;;24.70;99.90;;;;;;8333192;28;20018;-91
2023/08/16 06:54:15;;;;;;;0.10;0.10;;;25.30;99.90;;;;;;8333838;28;20050;-91
2023/08/16 06:58:16;;;;;;;0.50;0.45;;;25.40;99.90;;;;;;8322776;28;20597;-91
2023/08/16 07:02:17;;;;;;;0.10;0.10;;;25.60;99.90;;;;;;8329841;28;20105;-91
2023/08/16 07:06:18;;;;;;;0.10;0.10;;;25.60;99.90;;;;;;8338655;28;20026;-91
2023/08/16 07:10:19;;;;;;;0.30;0.30;;;25.50;99.90;;;;;;8353042;28;20026;-91
2023/08/16 07:14:19;;;;;;;0.10;0.10;;;26.40;99.90;;;;;;8353728;28;20026;-92
2023/08/16 07:18:20;;;;;;;19.77;3.05;;;26.40;99.90;;;;;;8352519;28;20136;-91
2023/08/16 07:22:24;;;;;;;0.20;0.20;;;26.60;99.90;;;;;;8334587;28;20390;-92
2023/08/16 07:26:24;;;;;;;0.10;0.10;;;26.40;99.90;;;;;;8323536;28;20037;-92
2023/08/16 07:30:25;;;;;;;0.10;0.10;;;26.20;99.90;;;;;;8344609;28;20117;-93
2023/08/16 07:34:25;;;;;;;0.08;0.08;;;26.20;99.90;;;;;;8331274;28;20042;-92
2023/08/16 07:38:27;;;;;;;0.00;0.00;;;26.50;99.90;;;;;;8338153;28;20061;-93
2023/08/16 07:42:28;;;;;;;0.10;0.10;;;26.50;99.90;;;;;;8354173;28;20091;-95
2023/08/16 07:46:29;;;;;;;0.00;0.00;;;26.20;99.90;;;;;;8344668;28;20018;-93
2023/08/16 07:50:33;;;;;;;0.10;0.10;;;25.80;99.90;;;;;;8373662;27;20057;-96
2023/08/16 07:54:39;;;;;;;0.00;0.00;;;25.90;99.90;;;;;;8375456;27;20081;-95
2023/08/16 07:58:43;;;;;;;0.08;0.08;;;25.70;99.90;;;;;;8367102;28;20014;-95
2023/08/16 08:03:28;;;;;;;0.00;0.00;;;26.20;99.90;;;;;;8360061;28;20015;-95
2023/08/16 08:12:58;;;;;;;0.10;0.10;;;26.40;99.90;;;;;;8416694;22;20059;-77
2023/08/16 08:16:59;;;;;;;0.10;0.10;;;26.40;99.90;;;;;;8418124;28;20041;-77
2023/08/16 08:20:59;;;;;;;0.63;0.63;;;26.50;99.90;;;;;;8398506;28;20075;-76
2023/08/16 08:25:01;;;;;;;0.00;0.00;;;26.80;99.90;;;;;;8412146;28;20052;-77
2023/08/16 08:29:01;;;;;;;0.10;0.10;;;27.10;99.90;;;;;;8418211;28;20024;-77
2023/08/16 08:33:02;;;;;;;0.10;0.10;;;27.10;99.90;;;;;;8386723;28;20025;-77
2023/08/16 08:37:03;;;;;;;1.30;0.43;;;27.30;99.90;;;;;;8413128;28;20396;-76
2023/08/16 08:41:06;;;;;;;0.20;0.20;;;28.00;99.90;;;;;;8394050;28;20028;-77
2023/08/16 08:45:07;;;;;;;0.00;0.00;;;27.80;99.90;;;;;;8418768;28;20044;-77
2023/08/16 08:49:09;;;;;;;0.20;0.20;;;28.10;99.90;;;;;;8400447;28;20019;-77
2023/08/16 08:53:10;;;;;;;0.00;0.00;;;28.90;99.90;;;;;;8393616;28;20016;-77
2023/08/16 08:57:11;;;;;;;0.00;0.00;;;29.00;99.90;;;;;;8400912;28;20040;-77
2023/08/16 09:01:13;;;;;;;0.10;0.10;;;29.20;99.90;;;;;;8400532;28;20020;-77
2023/08/16 09:05:14;;;;;;;0.10;0.10;;;29.20;99.90;;;;;;8389528;28;20020;-76
2023/08/16 09:09:14;;;;;;;0.10;0.10;;;28.80;99.90;;;;;;8400154;28;20533;-77
2023/08/16 09:13:16;;;;;;;0.00;0.00;;;28.50;99.90;;;;;;8399938;28;20035;-77
2023/08/16 09:17:18;;;;;;;0.10;0.10;;;28.90;99.90;;;;;;8401315;28;20115;-77
2023/08/16 09:21:19;;;;;;;0.00;0.00;;;29.20;99.90;;;;;;8400377;28;20020;-77
2023/08/16 09:25:21;;;;;;;0.00;0.00;;;29.00;99.90;;;;;;8400708;28;20040;-77
2023/08/16 09:29:21;;;;;;;0.00;0.00;;;29.20;99.90;;;;;;8417871;28;20476;-77
2023/08/16 09:33:24;;;;;;;0.20;0.20;;;29.20;99.90;;;;;;8403939;28;20484;-77
2023/08/16 09:37:24;;;;;;;0.10;0.10;;;29.60;99.90;;;;;;8399795;28;20063;-77
2023/08/16 09:41:26;;;;;;;3.75;1.55;;;29.70;99.90;;;;;;8418250;28;20048;-77
2023/08/16 09:45:30;;;;;;;0.17;0.17;;;29.30;99.90;;;;;;8406405;28;20339;-77
2023/08/16 09:49:32;;;;;;;0.30;0.30;;;29.00;99.90;;;;;;8398863;28;20035;-77
2023/08/16 09:53:33;;;;;;;0.10;0.10;;;28.60;99.90;;;;;;8405479;28;20024;-77
2023/08/16 09:57:35;;;;;;;0.08;0.08;;;28.60;99.90;;;;;;8400646;28;20024;-77
2023/08/16 10:01:36;;;;;;;0.43;0.43;;;28.80;99.90;;;;;;8421772;28;20026;-77
2023/08/16 10:05:37;;;;;;;4.95;4.00;;;29.00;99.90;;;;;;8405923;28;20028;-77
2023/08/16 10:09:38;;;;;;;7.25;4.10;;;29.10;99.90;;;;;;8404867;28;20024;-77
2023/08/16 10:13:40;;;;;;;4.60;4.15;;;29.20;99.90;;;;;;8422375;28;20492;-78
2023/08/16 10:17:42;;;;;;;6.07;4.47;;;29.20;99.90;;;;;;8406102;28;20024;-77
2023/08/16 10:21:45;;;;;;;6.78;4.10;;;29.30;99.90;;;;;;8422223;28;20546;-77
2023/08/16 10:25:48;;;;;;;4.00;3.60;;;29.30;99.90;;;;;;8404700;28;20024;-77
2023/08/16 10:29:55;;;;;;;4.45;3.90;;;29.40;99.90;;;;;;8421150;28;20027;-77
2023/08/16 10:33:58;;;;;;;4.18;3.58;;;29.70;99.90;;;;;;8390518;28;20477;-77
2023/08/16 10:37:59;;;;;;;4.75;3.65;;;30.90;99.90;;;;;;8397512;28;20027;-77
2023/08/16 10:42:06;;;;;;;6.00;3.60;;;31.60;99.90;;;;;;8404381;28;20028;-77
2023/08/16 10:46:07;;;;;;;4.95;3.28;;;32.40;99.90;;;;;;8404333;28;20021;-77
2023/08/16 10:50:08;;;;;;;5.35;3.10;;;32.60;99.90;;;;;;8403437;28;20071;-78
2023/08/16 10:54:09;;;;;;;3.75;3.30;;;33.00;99.90;;;;;;8396370;28;20013;-77
2023/08/16 10:58:24;;;;;;;4.10;3.15;;;32.60;99.90;;;;;;8403438;28;20070;-77
2023/08/16 11:02:32;;;;;;;3.33;3.03;;;32.10;99.90;;;;;;8392978;28;20027;-77
2023/08/16 11:06:37;;;;;;;3.42;3.10;;;32.10;99.90;;;;;;8413648;28;20028;-77
2023/08/16 11:10:38;;;;;;;3.47;3.17;;;32.20;99.90;;;;;;8403090;28;20024;-77
2023/08/16 11:14:38;;;;;;;3.30;3.00;;;32.50;99.90;;;;;;8403194;28;20024;-77
2023/08/16 11:18:41;;;;;;;3.85;3.50;;;33.50;99.90;;;;;;8421487;28;20038;-77
2023/08/16 11:22:42;;;;;;;5.03;3.10;;;32.60;99.90;;;;;;8420260;28;20038;-77
2023/08/16 11:26:43;;;;;;;4.30;2.88;;;33.50;99.90;;;;;;8402811;28;20510;-77
2023/08/16 11:30:43;;;;;;;3.47;2.80;;;34.20;99.90;;;;;;8402988;28;20024;-77
2023/08/16 11:34:44;;;;;;;3.10;2.80;;;34.20;99.70;;;;;;8403751;28;20028;-77
2023/08/16 11:38:47;;;;;;;3.97;3.42;;;35.10;99.80;;;;;;8402600;28;20059;-77
2023/08/16 11:42:50;;;;;;;6.03;3.50;;;34.30;99.70;;;;;;8418374;28;20396;-77
2023/08/16 11:46:51;;;;;;;3.70;3.25;;;34.30;99.90;;;;;;8401781;28;20115;-78
2023/08/16 11:50:52;;;;;;;7.00;2.60;;;35.00;98.50;;;;;;8394476;28;20091;-78
2023/08/16 11:55:08;;;;;;;4.72;2.63;;;35.40;99.20;;;;;;8401338;28;20110;-77
2023/08/16 11:59:08;;;;;;;3.53;2.90;;;33.90;98.60;;;;;;8412480;28;20077;-77
2023/08/16 12:03:11;;;;;;;3.35;2.80;;;33.40;99.70;;;;;;8381157;28;20026;-77
2023/08/16 12:07:11;;;;;;;4.55;2.90;;;34.90;95.00;;;;;;8414367;28;20101;-77
2023/08/16 12:11:12;;;;;;;3.05;2.75;;;35.20;94.30;;;;;;8400564;28;20492;-77
2023/08/16 12:15:12;;;;;;;3.25;2.33;;;35.60;97.90;;;;;;8401002;28;20039;-78
2023/08/16 12:19:19;;;;;;;3.28;2.97;;;36.60;91.70;;;;;;8401509;28;20033;-78
2023/08/16 12:23:20;;;;;;;3.58;2.80;;;37.70;88.80;;;;;;8397890;28;20046;-77
2023/08/16 12:27:20;;;;;;;4.38;2.67;;;35.10;92.50;;;;;;8389920;28;20035;-77
2023/08/16 12:31:21;;;;;;;4.32;3.13;;;35.40;92.40;;;;;;8418236;28;20484;-77
2023/08/16 12:35:21;;;;;;;2.78;2.58;;;35.80;89.90;;;;;;8399180;28;20016;-77
2023/08/16 12:39:22;;;;;;;3.42;2.60;;;36.40;90.60;;;;;;8398815;28;20513;-77
2023/08/16 12:43:22;;;;;;;4.57;2.70;;;36.30;84.50;;;;;;8399966;28;20027;-78
2023/08/16 12:47:23;;;;;;;2.55;2.30;;;35.80;90.00;;;;;;8400074;28;20016;-78
2023/08/16 12:51:23;;;;;;;3.50;2.50;;;35.50;86.70;;;;;;8392368;28;20347;-77
2023/08/16 12:55:24;;;;;;;3.58;2.30;;;35.50;88.80;;;;;;8399763;28;20077;-78
2023/08/16 12:59:25;;;;;;;3.15;2.80;;;36.70;86.80;;;;;;8399796;28;20020;-77
2023/08/16 13:03:25;;;;;;;2.70;2.50;;;38.70;80.80;;;;;;8388255;28;20495;-78
2023/08/16 13:07:26;;;;;;;3.22;2.75;;;39.80;77.40;;;;;;8417595;28;20036;-77
2023/08/16 13:11:26;;;;;;;3.70;2.72;;;37.80;76.40;;;;;;8417278;28;20028;-78
2023/08/16 13:15:27;;;;;;;2.90;2.60;;;38.70;75.40;;;;;;8399208;28;20028;-77
2023/08/16 13:19:27;;;;;;;3.03;2.30;;;38.20;77.50;;;;;;8405781;28;20020;-78
2023/08/16 13:23:28;;;;;;;3.08;2.72;;;39.80;74.80;;;;;;8399284;28;20499;-78
2023/08/16 13:27:29;;;;;;;3.53;2.42;;;40.60;66.30;;;;;;8398920;28;20035;-78
2023/08/16 13:31:29;;;;;;;2.83;2.40;;;39.60;71.70;;;;;;8394564;28;20048;-77
2023/08/16 13:35:30;;;;;;;3.65;2.28;;;38.50;73.20;;;;;;8402660;28;20016;-78
2023/08/16 13:39:30;;;;;;;4.05;2.00;;;39.20;74.90;;;;;;8405429;28;20020;-78
2023/08/16 13:43:31;;;;;;;4.03;2.20;;;40.70;66.60;;;;;;8416488;28;20088;-78
2023/08/16 13:47:31;;;;;;;2.80;2.20;;;39.80;65.10;;;;;;8398105;28;20028;-78
2023/08/16 13:51:32;;;;;;;2.20;2.00;;;39.40;71.60;;;;;;8403663;28;20041;-78
2023/08/16 13:55:33;;;;;;;3.35;2.20;;;40.20;62.60;;;;;;8404650;28;20058;-78
2023/08/16 13:59:33;;;;;;;2.15;1.95;;;40.80;65.50;;;;;;8416302;28;20268;-78
2023/08/16 14:03:34;;;;;;;3.33;1.77;;;40.90;59.80;;;;;;8403461;28;20081;-78
2023/08/16 14:07:35;;;;;;;2.40;2.00;;;42.10;55.80;;;;;;8421524;28;20074;-78
2023/08/16 14:11:35;;;;;;;4.55;1.90;;;42.00;57.60;;;;;;8407168;28;20024;-78
2023/08/16 14:15:36;;;;;;;2.47;2.03;;;42.00;54.60;;;;;;8403980;28;20056;-77
2023/08/16 14:19:36;;;;;;;5.15;2.30;;;39.70;58.20;;;;;;8422337;28;20028;-76
2023/08/16 14:23:37;;;;;;;2.95;2.13;;;39.60;56.20;;;;;;8400122;28;20028;-78
2023/08/16 14:27:37;;;;;;;3.72;1.95;;;40.10;56.00;;;;;;8420419;28;20095;-78
2023/08/16 14:31:39;;;;;;;4.00;2.10;;;40.10;59.60;;;;;;8420275;28;20023;-78
2023/08/16 14:35:40;;;;;;;2.10;1.88;;;40.10;59.40;;;;;;8402981;28;20078;-78
2023/08/16 14:39:41;;;;;;;2.63;1.80;;;40.40;57.20;;;;;;8404500;28;20024;-78
2023/08/16 14:43:42;;;;;;;5.03;1.75;;;41.40;58.10;;;;;;8404118;28;20051;-78
2023/08/16 14:47:42;;;;;;;3.47;2.20;;;40.90;60.00;;;;;;8404333;28;20110;-78
2023/08/16 14:51:43;;;;;;;2.90;1.88;;;41.80;57.90;;;;;;8355996;28;20032;-77
2023/08/16 14:55:43;;;;;;;3.35;1.90;;;41.40;53.50;;;;;;8352263;28;20032;-78
2023/08/16 14:59:44;;;;;;;3.90;2.00;;;41.20;55.20;;;;;;8352482;28;20048;-78
2023/08/16 15:03:45;;;;;;;2.58;1.85;;;41.70;55.90;;;;;;8375138;28;21219;-78
2023/08/16 15:07:45;;;;;;;2.00;1.80;;;40.90;52.20;;;;;;8383688;28;20028;-78
2023/08/16 15:11:46;;;;;;;2.90;1.77;;;41.50;53.90;;;;;;8375948;28;20032;-78
2023/08/16 15:15:46;;;;;;;2.10;1.90;;;40.60;53.10;;;;;;8373274;28;20056;-78
2023/08/16 15:19:47;;;;;;;2.08;1.77;;;41.10;55.30;;;;;;8349354;28;20029;-78
2023/08/16 15:23:48;;;;;;;2.30;2.00;;;41.80;51.10;;;;;;8376653;28;20035;-78
2023/08/16 15:27:48;;;;;;;2.60;1.90;;;42.30;52.00;;;;;;8369615;28;20046;-78
2023/08/16 15:31:49;;;;;;;3.47;1.95;;;41.30;53.10;;;;;;8393783;28;20032;-78
2023/08/16 15:35:50;;;;;;;3.80;1.80;;;41.20;49.80;;;;;;8374092;28;20039;-77
2023/08/16 15:39:51;;;;;;;2.08;1.73;;;41.40;51.10;;;;;;8354461;28;20025;-77
2023/08/16 15:43:51;;;;;;;2.05;1.70;;;41.80;52.20;;;;;;8364184;28;20048;-78
2023/08/16 15:47:52;;;;;;;2.00;1.75;;;40.60;55.40;;;;;;8380233;28;20076;-77
2023/08/16 15:51:52;;;;;;;3.38;1.90;;;40.20;55.30;;;;;;8369454;28;20024;-77
2023/08/16 15:55:56;;;;;;;2.65;1.80;;;38.50;55.90;;;;;;8374440;28;20115;-77
2023/08/16 15:59:58;;;;;;;3.55;2.28;;;34.70;65.20;;;;;;8380985;28;20413;-77
2023/08/16 16:03:59;;;;;;;3.63;2.05;;;32.30;68.00;;;;;;8381337;28;20020;-77
2023/08/16 16:07:59;;;;;;;3.58;2.17;;;31.10;76.40;;;;;;8365081;28;20036;-77
2023/08/16 16:12:00;;;;;;;4.75;2.13;;;30.60;79.40;;;;;;8374343;28;20081;-77
2023/08/16 16:16:00;;;;;;;5.72;2.42;;;30.30;80.20;;;;;;8377714;28;20499;-77
2023/08/16 16:20:01;;;;;;;6.30;2.70;;;29.90;78.00;;;;;;8399713;28;20060;-77
2023/08/16 16:24:02;;;;;;;5.15;2.33;;;29.80;83.80;;;;;;8353566;22;20070;-82
2023/08/16 16:28:03;;;;;;;2.65;2.10;;;29.50;87.20;;;;;;8279982;28;20022;-81
2023/08/16 16:32:04;;;;;;;4.50;2.80;;;29.40;89.80;;;;;;8331943;28;20046;-80
2023/08/16 16:36:05;;;;;;;4.82;2.55;;;29.10;89.60;;;;;;8320023;28;20041;-83
2023/08/16 16:40:07;;;;;;;3.53;2.40;;;28.80;88.20;;;;;;8318772;28;20057;-86
2023/08/16 16:44:08;;;;;;;5.38;2.53;;;28.70;90.80;;;;;;8316763;28;20030;-83
2023/08/16 16:48:09;;;;;;;3.25;2.50;;;28.60;91.20;;;;;;8309524;28;20023;-83
2023/08/16 16:52:09;;;;;;;4.53;2.17;;;28.40;91.80;;;;;;8320453;28;20050;-82
2023/08/16 16:56:10;;;;;;;3.08;2.50;;;28.30;93.10;;;;;;8256650;28;20035;-82
2023/08/16 17:00:11;;;;;;;4.47;2.60;;;28.30;93.50;;;;;;8310833;28;20524;-82
2023/08/16 17:04:11;;;;;;;3.05;2.38;;;28.10;93.80;;;;;;8286498;28;20038;-84
2023/08/16 17:08:12;;;;;;;5.78;2.65;;;28.00;94.70;;;;;;8314856;28;20125;-82
2023/08/16 17:12:12;;;;;;;4.65;2.45;;;27.70;95.20;;;;;;8312424;28;20479;-83
2023/08/16 17:16:13;;;;;;;3.40;2.55;;;27.60;95.80;;;;;;8301337;28;20038;-82
2023/08/16 17:20:14;;;;;;;3.35;2.70;;;27.40;95.90;;;;;;8238913;28;20410;-82
2023/08/16 17:24:15;;;;;;;2.80;2.50;;;27.00;97.10;;;;;;8316795;28;20041;-83
2023/08/16 17:28:15;;;;;;;3.25;2.50;;;26.70;98.70;;;;;;8298753;28;20034;-82
2023/08/16 17:32:16;;;;;;;5.07;3.00;;;26.30;99.80;;;;;;8312899;28;20030;-83
2023/08/16 17:36:16;;;;;;;3.58;2.78;;;26.10;99.90;;;;;;8315299;28;20029;-83
2023/08/16 17:40:17;;;;;;;4.80;2.85;;;25.60;99.90;;;;;;8304018;28;20407;-83
2023/08/16 17:44:17;;;;;;;3.10;2.67;;;25.10;99.90;;;;;;8286164;28;20233;-83
2023/08/16 17:48:18;;;;;;;3.78;2.72;;;24.90;99.90;;;;;;8247399;28;20026;-84
2023/08/16 17:52:19;;;;;;;3.97;2.65;;;24.60;99.90;;;;;;8321464;28;20038;-83
2023/08/16 17:56:19;;;;;;;5.40;2.97;;;24.40;99.90;;;;;;8300331;28;20423;-82
2023/08/16 18:00:20;;;;;;;7.38;2.83;;;24.20;99.90;;;;;;8308653;28;20026;-82
2023/08/16 18:04:20;;;;;;;4.78;2.80;;;24.10;99.90;;;;;;8303045;28;20043;-84
2023/08/16 18:08:21;;;;;;;3.13;2.78;;;23.90;99.90;;;;;;8309922;28;20391;-82
2023/08/16 18:12:22;;;;;;;6.80;2.80;;;23.60;99.90;;;;;;8301215;28;20027;-82
2023/08/16 18:16:22;;;;;;;4.45;3.00;;;23.40;99.90;;;;;;8307053;28;20041;-84
2023/08/16 18:20:23;;;;;;;4.72;3.58;;;23.10;99.90;;;;;;8244353;28;20102;-82
2023/08/16 18:24:23;;;;;;;5.38;3.83;;;22.90;99.90;;;;;;8248903;28;20038;-82
2023/08/16 18:28:24;;;;;;;6.18;3.20;;;22.90;99.90;;;;;;8322145;28;20030;-82
2023/08/16 18:32:25;;;;;;;4.90;3.10;;;22.90;99.90;;;;;;8313556;28;20026;-81
2023/08/16 18:36:25;;;;;;;4.78;3.40;;;22.80;99.90;;;;;;8259082;28;20041;-81
2023/08/16 18:40:26;;;;;;;5.45;4.20;;;22.60;99.90;;;;;;8321107;28;20027;-83
2023/08/16 18:44:26;;;;;;;8.10;6.55;;;22.50;99.90;;;;;;8252435;28;20035;-82
2023/08/16 18:48:27;;;;;;;5.80;3.45;;;22.40;99.90;;;;;;8258754;28;20983;-83
2023/08/16 18:52:27;;;;;;;4.97;3.90;;;22.60;99.90;;;;;;8334093;28;20035;-81
2023/08/16 18:56:28;;;;;;;8.20;4.13;;;22.40;99.90;;;;;;8276882;28;20036;-82
2023/08/16 19:00:28;;;;;;;8.25;6.10;;;22.30;99.90;;;;;;8317289;28;20030;-83
2023/08/16 19:04:29;;;;;;;5.43;3.38;;;22.10;99.90;;;;;;8244990;28;20030;-81
2023/08/16 19:08:29;;;;;;;9.38;3.65;;;22.10;99.90;;;;;;8332823;28;20028;-82
2023/08/16 19:12:30;;;;;;;7.85;4.18;;;21.70;99.90;;;;;;8307371;28;20026;-81
2023/08/16 19:16:32;;;;;;;5.10;3.65;;;21.40;99.90;;;;;;8320031;28;20618;-83
2023/08/16 19:20:34;;;;;;;8.43;3.90;;;21.20;99.90;;;;;;8315549;28;20026;-81
2023/08/16 19:24:35;;;;;;;5.25;3.92;;;21.00;99.90;;;;;;8302142;28;20034;-83
2023/08/16 19:28:35;;;;;;;6.85;4.68;;;21.00;99.90;;;;;;8251167;28;20034;-81
2023/08/16 19:32:36;;;;;;;6.28;5.30;;;21.00;99.90;;;;;;8316283;28;20181;-82
2023/08/16 19:36:36;;;;;;;6.82;5.22;;;21.00;99.90;;;;;;8253777;28;20142;-83
2023/08/16 19:40:37;;;;;;;5.90;5.30;;;21.00;99.90;;;;;;8318574;28;20570;-82
2023/08/16 19:44:37;;;;;;;5.88;4.70;;;20.90;99.90;;;;;;8253685;28;20027;-81
2023/08/16 19:48:38;;;;;;;7.68;5.18;;;20.90;99.90;;;;;;8253213;28;20035;-82
2023/08/16 19:52:38;;;;;;;7.97;5.70;;;21.00;99.90;;;;;;8316090;28;20026;-82
2023/08/16 19:56:39;;;;;;;6.65;5.38;;;21.10;99.90;;;;;;8315640;28;20121;-81
2023/08/16 20:00:39;;;;;;;8.35;5.05;;;21.30;99.90;;;;;;8321972;28;20041;-82
2023/08/16 20:04:40;;;;;;;9.73;5.97;;;21.30;99.90;;;;;;8318338;28;20076;-81
2023/08/16 20:08:40;;;;;;;10.10;5.53;;;21.00;99.90;;;;;;8312802;28;20030;-82
2023/08/16 20:12:41;;;;;;;9.63;5.82;;;20.80;99.90;;;;;;8243144;28;20054;-81
2023/08/16 20:16:41;;;;;;;7.35;5.57;;;20.60;99.90;;;;;;8310211;28;20031;-82
2023/08/16 20:20:42;;;;;;;6.95;5.03;;;20.70;99.90;;;;;;8315995;28;20456;-81
2023/08/16 20:24:43;;;;;;;8.73;5.30;;;20.80;99.90;;;;;;8310049;28;20030;-82
2023/08/16 20:28:43;;;;;;;8.63;5.97;;;20.80;99.90;;;;;;8303154;28;20457;-83
2023/08/16 20:32:44;;;;;;;6.65;5.95;;;20.90;99.90;;;;;;8297050;28;20023;-82
2023/08/16 20:36:44;;;;;;;7.10;4.57;;;21.10;99.90;;;;;;8317305;28;20421;-82
2023/08/16 20:40:45;;;;;;;6.97;5.22;;;21.10;99.90;;;;;;8236451;28;20107;-83
2023/08/16 20:44:45;;;;;;;8.55;5.20;;;21.00;99.90;;;;;;8246167;28;20038;-83
2023/08/16 20:48:46;;;;;;;5.70;4.70;;;20.70;99.90;;;;;;8236440;28;20034;-83
2023/08/16 20:52:46;;;;;;;6.22;5.15;;;20.80;99.90;;;;;;8301525;28;20562;-83
2023/08/16 20:56:47;;;;;;;6.55;5.28;;;21.20;99.90;;;;;;8241504;28;20031;-83
2023/08/16 21:00:48;;;;;;;5.85;4.60;;;21.40;99.90;;;;;;8313219;28;20486;-83
2023/08/16 21:04:48;;;;;;;6.57;4.40;;;21.80;99.90;;;;;;8311475;28;20031;-85